Beaver Dam, WI

12:26 AM CDT on August 21, 2014 (GMT -0500)
Dodge County | Change Station
CLOSE
Current Station
Airport
Location: Juneau,
Elevation: 935 ft
Nearby Weather Stations
Active Advisory: Special Statement

Elev 935 ft 43.43 °N, 88.70 °W | Updated 11 minutes ago

Mostly Cloudy
Mostly Cloudy
66 °F
Feels Like 66 °F
N
7
Wind Variable Wind from East

Today
High -- | Low -- °F
--% Chance of Precip.
Yesterday
High -- | Low -- °F
Precip. -- in
6:07 AM 7:49 PM
Waning Crescent, 16% visible
Pressure 29.97 in
Visibility 10.0 miles
Clouds Scattered Clouds 4800 ft
Mostly Cloudy 5500 ft
Dew Point 38 °F
Humidity 36%
Rainfall 0.00 in
Snow Depth Not available.
UV 0 out of 12
Pollen 9.90 out of 12
Air Quality Not available.
Flu Activity Not available.
METAR KUNU 210515Z AUTO 10006KT 10SM SCT048 BKN055 19/03 A2997 RMK AO2 T01860034

More Conditions Fewer Conditions

Pressure 29.97 in
Visibility 10.0 miles
Clouds Scattered Clouds 4800 ft
Mostly Cloudy 5500 ft
Dew Point 38 °F
Humidity 36%
Rainfall 0.00 in
Snow Depth Not available.
UV 0 out of 12
Pollen 9.90 out of 12
Air Quality Not available.
Flu Activity Not available.
METAR KUNU 210515Z AUTO 10006KT 10SM SCT048 BKN055 19/03 A2997 RMK AO2 T01860034

More Conditions Fewer Conditions

10-Day Weather Forecast

Almanac

Astronomy

Aug. 21, 2014 Rise Set
Actual Time 6:07 AM CDT 7:49 PM CDT
Civil Twilight 5:36 AM CDT 8:19 PM CDT
Nautical Twilight 4:59 AM CDT 8:56 PM CDT
Astronomical Twilight 4:19 AM CDT 9:35 PM CDT
Moon 2:34 AM CDT 5:20 PM CDT
Length of Visible Light 14h 42m
Length of Day
13h 42m
Tomorrow will be 2m 44s shorter.
Waning Crescent, 16% of the Moon is Illuminated
Today
Waning Crescent
Aug 25
New
Sep 2
First Quarter
Sep 8
Full
Sep 15
Last Quarter

Today's Extremes

State Highs State Lows

Community

WunderPhotos

Upload Photos

1,745,858 photos uploaded!

Nearby

Snow Depth

Station Depth Elevation
No new snow has been reported.

Earthquake Activity

City Distance Mag. Time & Date
No recent earthquake activity has been reported nearby.
Minimum magnitude displayed is 2.5.

Coastal Water Temperatures

Place Temperature
No Stations Reporting

Nearby Weather Stations